sensor_id;sensor_type;location;lat;lon;timestamp;pressure;altitude;pressure_sealevel;temperature;humidity
6028;BME280;3042;43.194;27.646;2023-02-18T00:01:02;102277.31;;;9.08;99.37
6028;BME280;3042;43.194;27.646;2023-02-18T00:03:29;102117.75;;;8.08;100.00
6028;BME280;3042;43.194;27.646;2023-02-18T00:05:57;102170.75;;;8.50;100.00
6028;BME280;3042;43.194;27.646;2023-02-18T00:08:24;102131.94;;;8.37;99.72
6028;BME280;3042;43.194;27.646;2023-02-18T00:10:51;102260.28;;;9.10;100.00
6028;BME280;3042;43.194;27.646;2023-02-18T00:13:19;102247.31;;;9.20;100.00
6028;BME280;3042;43.194;27.646;2023-02-18T00:15:46;102250.44;;;9.04;100.00
6028;BME280;3042;43.194;27.646;2023-02-18T00:18:13;102245.50;;;9.19;99.72
6028;BME280;3042;43.194;27.646;2023-02-18T00:20:40;102233.63;;;9.21;99.97
6028;BME280;3042;43.194;27.646;2023-02-18T00:23:07;102237.66;;;9.18;99.63
6028;BME280;3042;43.194;27.646;2023-02-18T00:25:34;102194.25;;;9.00;100.00
6028;BME280;3042;43.194;27.646;2023-02-18T00:28:01;102234.41;;;9.20;100.00
6028;BME280;3042;43.194;27.646;2023-02-18T00:30:30;102217.94;;;9.30;100.00
6028;BME280;3042;43.194;27.646;2023-02-18T00:32:56;102221.53;;;9.20;100.00
6028;BME280;3042;43.194;27.646;2023-02-18T00:35:23;102095.25;;;8.51;100.00
6028;BME280;3042;43.194;27.646;2023-02-18T00:37:51;102200.91;;;9.32;100.00
6028;BME280;3042;43.194;27.646;2023-02-18T00:40:18;102055.19;;;8.66;100.00
6028;BME280;3042;43.194;27.646;2023-02-18T00:42:45;102184.50;;;9.43;100.00
6028;BME280;3042;43.194;27.646;2023-02-18T00:45:12;102189.22;;;9.37;99.96
6028;BME280;3042;43.194;27.646;2023-02-18T00:47:41;102180.25;;;9.44;100.00
6028;BME280;3042;43.194;27.646;2023-02-18T00:50:08;102184.97;;;9.26;99.99
6028;BME280;3042;43.194;27.646;2023-02-18T00:52:35;102188.34;;;9.25;100.00
6028;BME280;3042;43.194;27.646;2023-02-18T00:55:03;102187.88;;;9.30;99.88
6028;BME280;3042;43.194;27.646;2023-02-18T00:57:30;102180.47;;;9.23;99.87
6028;BME280;3042;43.194;27.646;2023-02-18T00:59:57;102200.41;;;8.79;99.95
6028;BME280;3042;43.194;27.646;2023-02-18T01:02:24;102198.13;;;8.72;100.00
6028;BME280;3042;43.194;27.646;2023-02-18T01:04:52;102184.97;;;9.02;100.00
6028;BME280;3042;43.194;27.646;2023-02-18T01:07:19;102183.47;;;8.94;100.00
6028;BME280;3042;43.194;27.646;2023-02-18T01:09:46;102176.44;;;9.03;100.00
6028;BME280;3042;43.194;27.646;2023-02-18T01:12:13;102065.16;;;8.16;100.00
6028;BME280;3042;43.194;27.646;2023-02-18T01:14:40;102179.56;;;8.76;100.00
6028;BME280;3042;43.194;27.646;2023-02-18T01:17:07;102179.91;;;8.80;100.00
6028;BME280;3042;43.194;27.646;2023-02-18T01:19:34;102176.66;;;8.83;100.00
6028;BME280;3042;43.194;27.646;2023-02-18T01:22:03;102175.38;;;8.78;100.00
6028;BME280;3042;43.194;27.646;2023-02-18T01:24:31;102200.22;;;8.32;100.00
6028;BME280;3042;43.194;27.646;2023-02-18T01:26:58;102176.13;;;8.53;100.00
6028;BME280;3042;43.194;27.646;2023-02-18T01:29:25;102177.84;;;8.64;100.00
6028;BME280;3042;43.194;27.646;2023-02-18T01:31:52;102172.16;;;8.69;100.00
6028;BME280;3042;43.194;27.646;2023-02-18T01:34:19;102165.75;;;8.75;100.00
6028;BME280;3042;43.194;27.646;2023-02-18T01:36:46;102167.56;;;8.76;100.00
6028;BME280;3042;43.194;27.646;2023-02-18T01:39:15;102155.44;;;8.87;100.00
6028;BME280;3042;43.194;27.646;2023-02-18T01:41:42;102149.94;;;8.71;100.00
6028;BME280;3042;43.194;27.646;2023-02-18T01:44:14;102138.56;;;9.02;100.00
6028;BME280;3042;43.194;27.646;2023-02-18T01:46:41;102142.56;;;8.87;100.00
6028;BME280;3042;43.194;27.646;2023-02-18T01:49:09;102143.50;;;8.99;100.00
6028;BME280;3042;43.194;27.646;2023-02-18T01:51:40;102145.28;;;9.00;100.00
6028;BME280;3042;43.194;27.646;2023-02-18T01:54:11;102115.91;;;8.86;100.00
6028;BME280;3042;43.194;27.646;2023-02-18T01:56:47;102132.25;;;9.11;100.00
6028;BME280;3042;43.194;27.646;2023-02-18T01:59:17;102134.16;;;8.90;100.00
6028;BME280;3042;43.194;27.646;2023-02-18T02:01:47;102133.16;;;8.76;100.00
6028;BME280;3042;43.194;27.646;2023-02-18T02:04:14;102134.06;;;8.64;100.00
6028;BME280;3042;43.194;27.646;2023-02-18T02:06:41;102129.13;;;8.79;100.00
6028;BME280;3042;43.194;27.646;2023-02-18T02:09:10;102119.50;;;8.88;100.00
6028;BME280;3042;43.194;27.646;2023-02-18T02:11:54;102106.06;;;8.93;100.00
6028;BME280;3042;43.194;27.646;2023-02-18T02:14:38;102102.47;;;8.91;100.00
6028;BME280;3042;43.194;27.646;2023-02-18T02:17:10;102100.09;;;9.05;100.00
6028;BME280;3042;43.194;27.646;2023-02-18T02:23:33;102097.94;;;9.35;100.00
6028;BME280;3042;43.194;27.646;2023-02-18T02:26:49;102076.28;;;9.70;100.00
6028;BME280;3042;43.194;27.646;2023-02-18T02:32:36;102057.38;;;10.08;100.00
6028;BME280;3042;43.194;27.646;2023-02-18T02:35:15;102064.84;;;10.17;100.00
6028;BME280;3042;43.194;27.646;2023-02-18T02:37:48;102067.25;;;10.65;100.00
6028;BME280;3042;43.194;27.646;2023-02-18T02:40:23;102065.25;;;10.88;100.00
6028;BME280;3042;43.194;27.646;2023-02-18T02:43:01;102060.06;;;11.01;100.00
6028;BME280;3042;43.194;27.646;2023-02-18T02:45:40;102057.66;;;11.04;100.00
6028;BME280;3042;43.194;27.646;2023-02-18T02:48:17;102070.22;;;10.98;100.00
6028;BME280;3042;43.194;27.646;2023-02-18T02:50:53;102059.97;;;10.99;100.00
6028;BME280;3042;43.194;27.646;2023-02-18T02:53:27;102059.47;;;11.05;100.00
6028;BME280;3042;43.194;27.646;2023-02-18T02:55:56;102061.47;;;10.96;100.00
6028;BME280;3042;43.194;27.646;2023-02-18T02:58:23;102058.06;;;10.84;100.00
6028;BME280;3042;43.194;27.646;2023-02-18T03:01:01;102055.88;;;11.03;100.00
6028;BME280;3042;43.194;27.646;2023-02-18T03:03:56;101929.38;;;10.51;100.00
6028;BME280;3042;43.194;27.646;2023-02-18T03:06:53;101990.06;;;10.98;100.00
6028;BME280;3042;43.194;27.646;2023-02-18T03:09:32;102032.66;;;11.31;100.00
6028;BME280;3042;43.194;27.646;2023-02-18T03:12:06;102043.19;;;11.21;100.00
6028;BME280;3042;43.194;27.646;2023-02-18T03:14:43;102033.53;;;11.32;100.00
6028;BME280;3042;43.194;27.646;2023-02-18T03:17:17;102025.34;;;11.39;100.00
6028;BME280;3042;43.194;27.646;2023-02-18T03:19:53;101983.06;;;10.97;100.00
6028;BME280;3042;43.194;27.646;2023-02-18T03:22:26;102026.09;;;11.51;100.00
6028;BME280;3042;43.194;27.646;2023-02-18T03:24:56;102024.88;;;11.59;100.00
6028;BME280;3042;43.194;27.646;2023-02-18T03:27:26;102023.09;;;11.58;99.18
6028;BME280;3042;43.194;27.646;2023-02-18T03:29:56;102001.88;;;11.79;99.35
6028;BME280;3042;43.194;27.646;2023-02-18T03:32:26;102002.47;;;11.88;99.05
6028;BME280;3042;43.194;27.646;2023-02-18T03:34:57;102012.81;;;11.88;98.36
6028;BME280;3042;43.194;27.646;2023-02-18T03:37:28;102009.22;;;11.86;97.80
6028;BME280;3042;43.194;27.646;2023-02-18T03:39:59;102010.25;;;11.75;97.63
6028;BME280;3042;43.194;27.646;2023-02-18T03:42:27;102019.75;;;11.46;97.57
6028;BME280;3042;43.194;27.646;2023-02-18T03:44:55;102019.59;;;11.58;97.50
6028;BME280;3042;43.194;27.646;2023-02-18T03:47:23;102009.63;;;11.64;97.34
6028;BME280;3042;43.194;27.646;2023-02-18T03:49:50;102022.72;;;11.52;97.44
6028;BME280;3042;43.194;27.646;2023-02-18T03:52:17;102025.03;;;11.48;97.96
6028;BME280;3042;43.194;27.646;2023-02-18T03:54:45;102010.34;;;11.61;98.84
6028;BME280;3042;43.194;27.646;2023-02-18T03:57:12;102017.34;;;11.49;98.90
6028;BME280;3042;43.194;27.646;2023-02-18T03:59:39;102001.16;;;11.67;98.96
6028;BME280;3042;43.194;27.646;2023-02-18T04:02:06;101998.13;;;11.74;98.88
6028;BME280;3042;43.194;27.646;2023-02-18T04:04:33;101998.84;;;11.71;98.75
6028;BME280;3042;43.194;27.646;2023-02-18T04:07:00;101995.50;;;11.87;99.57
6028;BME280;3042;43.194;27.646;2023-02-18T04:09:27;101991.06;;;11.99;99.34
6028;BME280;3042;43.194;27.646;2023-02-18T04:11:56;101982.09;;;12.24;99.45
6028;BME280;3042;43.194;27.646;2023-02-18T04:14:23;101975.13;;;12.23;98.32
6028;BME280;3042;43.194;27.646;2023-02-18T04:16:50;101971.38;;;12.33;97.83
6028;BME280;3042;43.194;27.646;2023-02-18T04:19:17;101971.38;;;12.33;97.37
6028;BME280;3042;43.194;27.646;2023-02-18T04:21:44;101978.63;;;12.23;97.64
6028;BME280;3042;43.194;27.646;2023-02-18T04:24:11;101986.75;;;12.15;96.92
6028;BME280;3042;43.194;27.646;2023-02-18T04:26:38;101983.53;;;12.19;96.33
6028;BME280;3042;43.194;27.646;2023-02-18T04:29:06;101972.06;;;12.45;96.52
6028;BME280;3042;43.194;27.646;2023-02-18T04:31:33;101972.19;;;12.32;95.92
6028;BME280;3042;43.194;27.646;2023-02-18T04:34:00;101877.59;;;11.79;95.52
6028;BME280;3042;43.194;27.646;2023-02-18T04:36:27;101958.50;;;12.34;96.84
6028;BME280;3042;43.194;27.646;2023-02-18T04:38:54;101958.13;;;12.43;95.80
6028;BME280;3042;43.194;27.646;2023-02-18T04:41:21;101946.53;;;12.36;94.58
6028;BME280;3042;43.194;27.646;2023-02-18T04:43:48;101948.31;;;12.37;94.40
6028;BME280;3042;43.194;27.646;2023-02-18T04:46:16;101944.91;;;12.38;94.71
6028;BME280;3042;43.194;27.646;2023-02-18T04:48:43;101952.59;;;12.22;94.76
6028;BME280;3042;43.194;27.646;2023-02-18T04:51:10;101956.19;;;12.24;94.82
6028;BME280;3042;43.194;27.646;2023-02-18T04:53:37;101957.63;;;12.19;94.54
6028;BME280;3042;43.194;27.646;2023-02-18T04:56:05;101948.94;;;12.33;94.51
6028;BME280;3042;43.194;27.646;2023-02-18T04:58:32;101942.97;;;12.34;94.72
6028;BME280;3042;43.194;27.646;2023-02-18T05:00:59;101941.50;;;12.39;94.22
6028;BME280;3042;43.194;27.646;2023-02-18T05:03:28;101922.78;;;12.60;95.12
6028;BME280;3042;43.194;27.646;2023-02-18T05:05:56;101863.56;;;12.20;95.19
6028;BME280;3042;43.194;27.646;2023-02-18T05:08:23;101924.66;;;12.48;94.68
6028;BME280;3042;43.194;27.646;2023-02-18T05:10:50;101921.44;;;12.52;95.11
6028;BME280;3042;43.194;27.646;2023-02-18T05:13:17;101922.91;;;12.46;96.27
6028;BME280;3042;43.194;27.646;2023-02-18T05:15:44;101909.16;;;12.64;95.46
6028;BME280;3042;43.194;27.646;2023-02-18T05:18:11;101908.63;;;12.86;94.88
6028;BME280;3042;43.194;27.646;2023-02-18T05:20:39;101895.09;;;13.08;94.79
6028;BME280;3042;43.194;27.646;2023-02-18T05:23:06;101902.09;;;13.09;94.45
6028;BME280;3042;43.194;27.646;2023-02-18T05:25:33;101908.06;;;13.24;93.97
6028;BME280;3042;43.194;27.646;2023-02-18T05:28:00;101907.84;;;13.36;93.52
6028;BME280;3042;43.194;27.646;2023-02-18T05:30:27;101909.69;;;13.39;92.44
6028;BME280;3042;43.194;27.646;2023-02-18T05:32:58;101719.75;;;12.28;91.72
6028;BME280;3042;43.194;27.646;2023-02-18T05:35:25;101857.16;;;13.10;90.88
6028;BME280;3042;43.194;27.646;2023-02-18T05:37:53;101901.84;;;13.71;90.27
6028;BME280;3042;43.194;27.646;2023-02-18T05:40:20;101900.09;;;13.70;89.64
6028;BME280;3042;43.194;27.646;2023-02-18T05:42:47;101904.56;;;13.91;89.42
6028;BME280;3042;43.194;27.646;2023-02-18T05:45:14;101910.78;;;13.94;89.61
6028;BME280;3042;43.194;27.646;2023-02-18T05:47:41;101908.75;;;14.05;89.10
6028;BME280;3042;43.194;27.646;2023-02-18T05:50:09;101902.50;;;14.20;88.25
6028;BME280;3042;43.194;27.646;2023-02-18T05:52:36;101829.53;;;13.79;87.45
6028;BME280;3042;43.194;27.646;2023-02-18T05:55:05;101886.72;;;14.34;88.40
6028;BME280;3042;43.194;27.646;2023-02-18T05:57:32;101900.22;;;14.26;88.13
6028;BME280;3042;43.194;27.646;2023-02-18T05:59:59;101901.84;;;14.24;88.70
6028;BME280;3042;43.194;27.646;2023-02-18T06:02:26;101898.63;;;14.11;89.67
6028;BME280;3042;43.194;27.646;2023-02-18T06:04:53;101884.81;;;14.12;90.47
6028;BME280;3042;43.194;27.646;2023-02-18T06:07:20;101902.03;;;14.10;91.97
6028;BME280;3042;43.194;27.646;2023-02-18T06:09:47;101896.78;;;14.27;91.88
6028;BME280;3042;43.194;27.646;2023-02-18T06:12:15;101902.50;;;14.38;91.45
6028;BME280;3042;43.194;27.646;2023-02-18T06:14:42;101891.94;;;14.34;90.80
6028;BME280;3042;43.194;27.646;2023-02-18T06:17:10;101892.69;;;14.32;90.76
6028;BME280;3042;43.194;27.646;2023-02-18T06:19:47;101890.91;;;14.31;90.87
6028;BME280;3042;43.194;27.646;2023-02-18T06:22:14;101894.47;;;14.33;90.93
6028;BME280;3042;43.194;27.646;2023-02-18T06:24:41;101892.81;;;14.35;91.52
6028;BME280;3042;43.194;27.646;2023-02-18T06:27:08;101652.53;;;13.00;90.83
6028;BME280;3042;43.194;27.646;2023-02-18T06:29:36;101877.31;;;14.54;91.78
6028;BME280;3042;43.194;27.646;2023-02-18T06:32:04;101873.06;;;14.56;91.80
6028;BME280;3042;43.194;27.646;2023-02-18T06:34:31;101753.47;;;14.01;91.26
6028;BME280;3042;43.194;27.646;2023-02-18T06:36:58;101861.38;;;14.86;90.81
6028;BME280;3042;43.194;27.646;2023-02-18T06:39:25;101773.59;;;14.43;89.57
6028;BME280;3042;43.194;27.646;2023-02-18T06:41:53;101858.22;;;15.12;89.90
6028;BME280;3042;43.194;27.646;2023-02-18T06:44:20;101853.59;;;15.26;88.80
6028;BME280;3042;43.194;27.646;2023-02-18T06:46:48;101834.78;;;15.53;88.64
6028;BME280;3042;43.194;27.646;2023-02-18T06:49:15;101863.44;;;15.53;88.29
6028;BME280;3042;43.194;27.646;2023-02-18T06:51:42;101838.06;;;15.70;86.90
6028;BME280;3042;43.194;27.646;2023-02-18T06:54:09;101835.59;;;15.94;86.27
6028;BME280;3042;43.194;27.646;2023-02-18T06:56:36;101835.56;;;16.15;86.01
6028;BME280;3042;43.194;27.646;2023-02-18T06:59:03;101837.91;;;16.30;85.54
6028;BME280;3042;43.194;27.646;2023-02-18T07:01:30;101836.09;;;16.51;85.67
6028;BME280;3042;43.194;27.646;2023-02-18T07:03:59;101827.34;;;16.73;85.67
6028;BME280;3042;43.194;27.646;2023-02-18T07:06:26;101700.19;;;15.97;85.62
6028;BME280;3042;43.194;27.646;2023-02-18T07:08:53;101835.25;;;16.75;85.69
6028;BME280;3042;43.194;27.646;2023-02-18T07:11:20;101840.56;;;16.78;85.66
6028;BME280;3042;43.194;27.646;2023-02-18T07:13:47;101792.56;;;16.50;84.68
6028;BME280;3042;43.194;27.646;2023-02-18T07:16:14;101839.97;;;16.85;85.01
6028;BME280;3042;43.194;27.646;2023-02-18T07:18:41;101833.09;;;16.87;84.80
6028;BME280;3042;43.194;27.646;2023-02-18T07:21:09;101775.91;;;16.71;84.83
6028;BME280;3042;43.194;27.646;2023-02-18T07:23:36;101840.13;;;16.88;84.61
6028;BME280;3042;43.194;27.646;2023-02-18T07:26:06;101836.13;;;16.99;85.42
6028;BME280;3042;43.194;27.646;2023-02-18T07:28:33;101846.75;;;16.80;83.93
6028;BME280;3042;43.194;27.646;2023-02-18T07:31:00;101835.81;;;16.90;84.03
6028;BME280;3042;43.194;27.646;2023-02-18T07:33:27;101828.91;;;16.92;83.80
6028;BME280;3042;43.194;27.646;2023-02-18T07:35:55;101758.88;;;16.56;83.80
6028;BME280;3042;43.194;27.646;2023-02-18T07:38:24;101814.56;;;17.29;84.38
6028;BME280;3042;43.194;27.646;2023-02-18T07:40:52;101812.16;;;17.35;83.17
6028;BME280;3042;43.194;27.646;2023-02-18T07:43:19;101794.47;;;17.54;83.37
6028;BME280;3042;43.194;27.646;2023-02-18T07:45:47;101800.09;;;17.66;83.03
6028;BME280;3042;43.194;27.646;2023-02-18T07:48:15;101780.38;;;18.03;83.26
6028;BME280;3042;43.194;27.646;2023-02-18T07:50:43;101784.31;;;18.17;84.29
6028;BME280;3042;43.194;27.646;2023-02-18T07:53:11;101775.28;;;18.38;83.61
6028;BME280;3042;43.194;27.646;2023-02-18T07:55:40;101769.50;;;18.78;83.56
6028;BME280;3042;43.194;27.646;2023-02-18T07:58:18;101760.63;;;19.06;85.56
6028;BME280;3042;43.194;27.646;2023-02-18T08:00:46;101646.97;;;18.68;85.06
6028;BME280;3042;43.194;27.646;2023-02-18T08:03:14;101786.06;;;19.45;82.90
6028;BME280;3042;43.194;27.646;2023-02-18T08:05:41;101633.28;;;18.76;82.03
6028;BME280;3042;43.194;27.646;2023-02-18T08:08:12;101763.53;;;19.88;81.80
6028;BME280;3042;43.194;27.646;2023-02-18T08:10:41;101761.94;;;19.96;81.41
6028;BME280;3042;43.194;27.646;2023-02-18T08:13:09;101769.97;;;20.02;80.30
6028;BME280;3042;43.194;27.646;2023-02-18T08:15:36;101763.31;;;20.20;79.55
6028;BME280;3042;43.194;27.646;2023-02-18T08:18:03;101751.75;;;20.53;79.16
6028;BME280;3042;43.194;27.646;2023-02-18T08:20:31;101765.69;;;20.49;77.59
6028;BME280;3042;43.194;27.646;2023-02-18T08:23:01;101772.91;;;20.59;76.88
6028;BME280;3042;43.194;27.646;2023-02-18T08:25:28;101641.34;;;19.99;69.98
6028;BME280;3042;43.194;27.646;2023-02-18T08:27:56;101733.53;;;21.09;68.53
6028;BME280;3042;43.194;27.646;2023-02-18T08:30:24;101728.34;;;21.12;65.00
6028;BME280;3042;43.194;27.646;2023-02-18T08:32:51;101720.56;;;21.18;62.95
6028;BME280;3042;43.194;27.646;2023-02-18T08:35:19;101692.00;;;21.40;62.19
6028;BME280;3042;43.194;27.646;2023-02-18T08:37:46;101692.09;;;21.46;60.75
6028;BME280;3042;43.194;27.646;2023-02-18T08:40:13;101675.88;;;21.76;60.23
6028;BME280;3042;43.194;27.646;2023-02-18T08:42:40;101670.84;;;21.95;59.44
6028;BME280;3042;43.194;27.646;2023-02-18T08:45:09;101656.41;;;22.32;59.76
6028;BME280;3042;43.194;27.646;2023-02-18T08:47:37;101595.63;;;22.17;58.89
6028;BME280;3042;43.194;27.646;2023-02-18T08:50:05;101649.72;;;22.68;59.01
6028;BME280;3042;43.194;27.646;2023-02-18T08:52:32;101656.88;;;22.84;59.38
6028;BME280;3042;43.194;27.646;2023-02-18T08:54:59;101644.78;;;23.02;57.95
6028;BME280;3042;43.194;27.646;2023-02-18T08:57:27;101644.78;;;23.08;57.70
6028;BME280;3042;43.194;27.646;2023-02-18T08:59:54;101645.72;;;23.14;56.68
6028;BME280;3042;43.194;27.646;2023-02-18T09:02:22;101648.59;;;23.50;56.97
6028;BME280;3042;43.194;27.646;2023-02-18T09:04:50;101632.75;;;23.50;56.09
6028;BME280;3042;43.194;27.646;2023-02-18T09:07:17;101640.84;;;23.74;54.87
6028;BME280;3042;43.194;27.646;2023-02-18T09:09:44;101643.34;;;23.59;53.72
6028;BME280;3042;43.194;27.646;2023-02-18T09:12:11;101637.34;;;23.85;54.17
6028;BME280;3042;43.194;27.646;2023-02-18T09:14:38;101623.31;;;23.98;53.89
6028;BME280;3042;43.194;27.646;2023-02-18T09:17:05;101655.59;;;23.45;51.88
6028;BME280;3042;43.194;27.646;2023-02-18T09:19:34;101638.09;;;23.59;52.16
6028;BME280;3042;43.194;27.646;2023-02-18T09:22:01;101641.41;;;23.24;51.32
6028;BME280;3042;43.194;27.646;2023-02-18T09:24:28;101646.53;;;23.03;51.25
6028;BME280;3042;43.194;27.646;2023-02-18T09:26:55;101635.88;;;22.96;51.48
6028;BME280;3042;43.194;27.646;2023-02-18T09:29:22;101628.97;;;23.08;50.83
6028;BME280;3042;43.194;27.646;2023-02-18T09:31:49;101625.31;;;22.93;51.18
6028;BME280;3042;43.194;27.646;2023-02-18T09:34:16;101627.97;;;22.93;50.75
6028;BME280;3042;43.194;27.646;2023-02-18T09:36:44;101632.25;;;22.82;50.54
6028;BME280;3042;43.194;27.646;2023-02-18T09:39:11;101627.03;;;22.85;50.64
6028;BME280;3042;43.194;27.646;2023-02-18T09:41:42;101620.22;;;23.09;50.60
6028;BME280;3042;43.194;27.646;2023-02-18T09:44:13;101604.53;;;23.33;51.01
6028;BME280;3042;43.194;27.646;2023-02-18T09:46:48;101599.31;;;23.46;50.77
6028;BME280;3042;43.194;27.646;2023-02-18T09:49:19;101594.06;;;23.52;50.67
6028;BME280;3042;43.194;27.646;2023-02-18T09:51:49;101438.94;;;22.68;50.97
6028;BME280;3042;43.194;27.646;2023-02-18T09:54:17;101583.56;;;23.61;50.66
6028;BME280;3042;43.194;27.646;2023-02-18T09:56:46;101592.28;;;23.48;50.58
6028;BME280;3042;43.194;27.646;2023-02-18T09:59:17;101595.81;;;23.50;51.20
6028;BME280;3042;43.194;27.646;2023-02-18T10:01:45;101609.75;;;23.21;50.86
6028;BME280;3042;43.194;27.646;2023-02-18T10:04:16;101588.72;;;23.38;50.93
6028;BME280;3042;43.194;27.646;2023-02-18T10:06:45;101514.56;;;22.84;51.52
6028;BME280;3042;43.194;27.646;2023-02-18T10:09:19;101352.47;;;22.05;51.64
6028;BME280;3042;43.194;27.646;2023-02-18T10:11:49;101565.81;;;23.23;51.45
6028;BME280;3042;43.194;27.646;2023-02-18T10:14:17;101588.63;;;23.18;51.45
6028;BME280;3042;43.194;27.646;2023-02-18T10:16:45;101577.19;;;23.22;51.46
6028;BME280;3042;43.194;27.646;2023-02-18T10:19:21;101567.59;;;23.36;51.43
6028;BME280;3042;43.194;27.646;2023-02-18T10:21:50;101400.94;;;22.30;51.71
6028;BME280;3042;43.194;27.646;2023-02-18T10:24:26;101493.69;;;23.21;51.38
6028;BME280;3042;43.194;27.646;2023-02-18T10:26:53;101543.09;;;23.62;51.43
6028;BME280;3042;43.194;27.646;2023-02-18T10:29:22;101459.47;;;23.35;52.06
6028;BME280;3042;43.194;27.646;2023-02-18T10:31:52;101522.97;;;23.92;51.76
6028;BME280;3042;43.194;27.646;2023-02-18T10:34:29;101524.72;;;23.97;51.87
6028;BME280;3042;43.194;27.646;2023-02-18T10:37:01;101410.28;;;23.51;52.53
6028;BME280;3042;43.194;27.646;2023-02-18T10:39:45;101532.53;;;23.62;52.61
6028;BME280;3042;43.194;27.646;2023-02-18T10:42:25;101530.81;;;23.70;53.03
6028;BME280;3042;43.194;27.646;2023-02-18T10:45:05;101507.81;;;23.32;53.38
6028;BME280;3042;43.194;27.646;2023-02-18T10:47:38;101546.44;;;23.21;54.13
6028;BME280;3042;43.194;27.646;2023-02-18T10:50:11;101544.69;;;23.23;54.14
6028;BME280;3042;43.194;27.646;2023-02-18T10:52:42;101544.75;;;23.32;54.31
6028;BME280;3042;43.194;27.646;2023-02-18T10:55:13;101534.31;;;23.60;54.54
6028;BME280;3042;43.194;27.646;2023-02-18T10:57:47;101529.03;;;23.69;54.12
6028;BME280;3042;43.194;27.646;2023-02-18T11:00:17;101514.19;;;23.91;54.37
6028;BME280;3042;43.194;27.646;2023-02-18T11:02:45;101508.03;;;24.06;54.46
6028;BME280;3042;43.194;27.646;2023-02-18T11:05:22;101493.94;;;24.32;54.03
6028;BME280;3042;43.194;27.646;2023-02-18T11:07:52;101417.38;;;23.98;54.10
6028;BME280;3042;43.194;27.646;2023-02-18T11:10:24;101453.44;;;23.74;55.43
6028;BME280;3042;43.194;27.646;2023-02-18T11:12:55;101506.28;;;24.14;56.32
6028;BME280;3042;43.194;27.646;2023-02-18T11:15:25;101508.03;;;24.17;56.83
6028;BME280;3042;43.194;27.646;2023-02-18T11:17:54;101513.31;;;24.03;56.59
6028;BME280;3042;43.194;27.646;2023-02-18T11:20:28;101499.25;;;24.16;56.52
6028;BME280;3042;43.194;27.646;2023-02-18T11:23:14;101456.97;;;23.92;56.30
6028;BME280;3042;43.194;27.646;2023-02-18T11:25:54;101498.34;;;24.20;56.60
6028;BME280;3042;43.194;27.646;2023-02-18T11:28:29;101416.50;;;23.74;56.93
6028;BME280;3042;43.194;27.646;2023-02-18T11:30:58;101442.00;;;24.11;56.45
6028;BME280;3042;43.194;27.646;2023-02-18T11:33:32;101486.91;;;24.61;55.94
6028;BME280;3042;43.194;27.646;2023-02-18T11:36:04;101486.03;;;24.70;55.87
6028;BME280;3042;43.194;27.646;2023-02-18T11:38:43;101453.47;;;24.08;55.86
6028;BME280;3042;43.194;27.646;2023-02-18T11:41:14;101491.28;;;24.30;55.89
6028;BME280;3042;43.194;27.646;2023-02-18T11:43:44;101498.34;;;24.22;55.41
6028;BME280;3042;43.194;27.646;2023-02-18T11:46:14;101490.44;;;24.45;55.66
6028;BME280;3042;43.194;27.646;2023-02-18T11:48:41;101474.56;;;24.67;55.66
6028;BME280;3042;43.194;27.646;2023-02-18T11:51:15;101471.06;;;24.58;55.01
6028;BME280;3042;43.194;27.646;2023-02-18T11:53:56;101301.22;;;23.66;55.88
6028;BME280;3042;43.194;27.646;2023-02-18T11:56:29;101473.69;;;24.64;56.05
6028;BME280;3042;43.194;27.646;2023-02-18T11:58:57;101471.03;;;24.43;55.49
6028;BME280;3042;43.194;27.646;2023-02-18T12:01:35;101462.25;;;24.59;56.34
6028;BME280;3042;43.194;27.646;2023-02-18T12:04:07;101464.00;;;24.60;55.57
6028;BME280;3042;43.194;27.646;2023-02-18T12:06:44;101460.47;;;24.71;55.58
6028;BME280;3042;43.194;27.646;2023-02-18T12:09:21;101272.19;;;23.89;55.98
6028;BME280;3042;43.194;27.646;2023-02-18T12:11:54;101435.72;;;24.96;56.31
6028;BME280;3042;43.194;27.646;2023-02-18T12:14:23;101322.13;;;24.67;55.81
6028;BME280;3042;43.194;27.646;2023-02-18T12:17:17;101428.59;;;25.08;55.67
6028;BME280;3042;43.194;27.646;2023-02-18T12:20:06;101365.38;;;24.40;55.80
6028;BME280;3042;43.194;27.646;2023-02-18T12:22:41;101293.31;;;23.89;56.03
6028;BME280;3042;43.194;27.646;2023-02-18T12:25:24;101455.22;;;24.40;56.22
6028;BME280;3042;43.194;27.646;2023-02-18T12:28:07;101455.22;;;24.25;56.34
6028;BME280;3042;43.194;27.646;2023-02-18T12:30:52;101446.41;;;24.32;57.17
6028;BME280;3042;43.194;27.646;2023-02-18T12:33:33;101464.00;;;24.30;56.73
6028;BME280;3042;43.194;27.646;2023-02-18T12:36:11;101376.88;;;24.05;56.94
6028;BME280;3042;43.194;27.646;2023-02-18T12:39:05;101453.44;;;24.48;56.71
6028;BME280;3042;43.194;27.646;2023-02-18T12:41:54;101449.00;;;24.44;56.79
6028;BME280;3042;43.194;27.646;2023-02-18T12:44:33;101422.59;;;24.59;56.65
6028;BME280;3042;43.194;27.646;2023-02-18T12:47:20;101432.25;;;24.76;56.27
6028;BME280;3042;43.194;27.646;2023-02-18T12:52:51;101449.06;;;24.16;56.30
6028;BME280;3042;43.194;27.646;2023-02-18T12:55:37;101456.09;;;24.17;56.48
6028;BME280;3042;43.194;27.646;2023-02-18T12:58:16;101448.19;;;24.23;57.26
6028;BME280;3042;43.194;27.646;2023-02-18T13:04:11;101443.75;;;24.42;56.94
6028;BME280;3042;43.194;27.646;2023-02-18T13:13:10;101465.75;;;23.97;59.15
6028;BME280;3042;43.194;27.646;2023-02-18T13:15:40;101466.66;;;23.91;59.54
6028;BME280;3042;43.194;27.646;2023-02-18T13:18:15;101471.03;;;23.85;60.20
6028;BME280;3042;43.194;27.646;2023-02-18T13:20:47;101479.72;;;23.47;60.52
6028;BME280;3042;43.194;27.646;2023-02-18T13:23:20;101456.88;;;23.52;60.67
6028;BME280;3042;43.194;27.646;2023-02-18T13:25:52;101401.41;;;23.20;60.28
6028;BME280;3042;43.194;27.646;2023-02-18T13:28:25;101492.09;;;23.66;60.77
6028;BME280;3042;43.194;27.646;2023-02-18T13:31:04;101488.56;;;23.64;60.77
6028;BME280;3042;43.194;27.646;2023-02-18T13:33:40;101493.78;;;23.39;61.29
6028;BME280;3042;43.194;27.646;2023-02-18T13:36:17;101489.41;;;23.42;61.53